sensor_id;sensor_type;location;lat;lon;timestamp;P1;durP1;ratioP1;P2;durP2;ratioP2
20861;SDS011;10591;52.532;13.348;2023-04-15T00:01:16;37.88;;;25.23;;
20861;SDS011;10591;52.532;13.348;2023-04-15T00:03:50;37.93;;;25.57;;
20861;SDS011;10591;52.532;13.348;2023-04-15T00:06:22;41.58;;;26.52;;
20861;SDS011;10591;52.532;13.348;2023-04-15T00:08:53;36.93;;;25.72;;
20861;SDS011;10591;52.532;13.348;2023-04-15T00:11:24;42.30;;;26.97;;
20861;SDS011;10591;52.532;13.348;2023-04-15T00:13:55;39.78;;;27.20;;
20861;SDS011;10591;52.532;13.348;2023-04-15T00:16:28;40.83;;;26.23;;
20861;SDS011;10591;52.532;13.348;2023-04-15T00:19:00;40.63;;;26.60;;
20861;SDS011;10591;52.532;13.348;2023-04-15T00:21:34;42.93;;;26.82;;
20861;SDS011;10591;52.532;13.348;2023-04-15T00:24:04;40.25;;;27.13;;
20861;SDS011;10591;52.532;13.348;2023-04-15T00:26:38;41.58;;;26.10;;
20861;SDS011;10591;52.532;13.348;2023-04-15T00:29:09;39.30;;;27.17;;
20861;SDS011;10591;52.532;13.348;2023-04-15T00:31:41;38.70;;;24.98;;
20861;SDS011;10591;52.532;13.348;2023-04-15T00:34:11;41.65;;;27.37;;
20861;SDS011;10591;52.532;13.348;2023-04-15T00:36:44;40.73;;;27.15;;
20861;SDS011;10591;52.532;13.348;2023-04-15T00:39:15;45.00;;;28.35;;
20861;SDS011;10591;52.532;13.348;2023-04-15T00:41:46;46.10;;;28.83;;
20861;SDS011;10591;52.532;13.348;2023-04-15T00:44:21;41.35;;;26.77;;
20861;SDS011;10591;52.532;13.348;2023-04-15T00:46:53;41.83;;;26.82;;
20861;SDS011;10591;52.532;13.348;2023-04-15T00:49:26;45.38;;;29.25;;
20861;SDS011;10591;52.532;13.348;2023-04-15T00:52:00;48.30;;;30.17;;
20861;SDS011;10591;52.532;13.348;2023-04-15T00:54:32;45.15;;;28.27;;
20861;SDS011;10591;52.532;13.348;2023-04-15T00:57:04;46.10;;;29.67;;
20861;SDS011;10591;52.532;13.348;2023-04-15T00:59:35;43.13;;;28.65;;
20861;SDS011;10591;52.532;13.348;2023-04-15T01:02:06;45.55;;;28.87;;
20861;SDS011;10591;52.532;13.348;2023-04-15T01:04:38;44.38;;;28.85;;
20861;SDS011;10591;52.532;13.348;2023-04-15T01:07:09;46.60;;;28.90;;
20861;SDS011;10591;52.532;13.348;2023-04-15T01:09:40;44.65;;;29.82;;
20861;SDS011;10591;52.532;13.348;2023-04-15T01:12:14;45.28;;;28.83;;
20861;SDS011;10591;52.532;13.348;2023-04-15T01:14:51;41.35;;;27.87;;
20861;SDS011;10591;52.532;13.348;2023-04-15T01:17:24;47.17;;;29.18;;
20861;SDS011;10591;52.532;13.348;2023-04-15T01:19:55;46.08;;;28.60;;
20861;SDS011;10591;52.532;13.348;2023-04-15T01:22:26;48.35;;;29.65;;
20861;SDS011;10591;52.532;13.348;2023-04-15T01:25:05;45.78;;;28.27;;
20861;SDS011;10591;52.532;13.348;2023-04-15T01:27:38;46.90;;;30.17;;
20861;SDS011;10591;52.532;13.348;2023-04-15T01:30:10;47.33;;;28.93;;
20861;SDS011;10591;52.532;13.348;2023-04-15T01:32:43;44.50;;;29.67;;
20861;SDS011;10591;52.532;13.348;2023-04-15T01:35:19;45.60;;;29.05;;
20861;SDS011;10591;52.532;13.348;2023-04-15T01:37:54;43.68;;;28.60;;
20861;SDS011;10591;52.532;13.348;2023-04-15T01:40:28;43.23;;;28.75;;
20861;SDS011;10591;52.532;13.348;2023-04-15T01:42:59;47.95;;;30.52;;
20861;SDS011;10591;52.532;13.348;2023-04-15T01:45:33;47.27;;;29.40;;
20861;SDS011;10591;52.532;13.348;2023-04-15T01:48:04;47.53;;;29.23;;
20861;SDS011;10591;52.532;13.348;2023-04-15T01:50:36;47.77;;;29.10;;
20861;SDS011;10591;52.532;13.348;2023-04-15T01:53:08;46.35;;;29.20;;
20861;SDS011;10591;52.532;13.348;2023-04-15T01:55:39;43.98;;;29.23;;
20861;SDS011;10591;52.532;13.348;2023-04-15T01:58:12;46.18;;;29.15;;
20861;SDS011;10591;52.532;13.348;2023-04-15T02:00:44;49.23;;;30.90;;
20861;SDS011;10591;52.532;13.348;2023-04-15T02:03:15;49.83;;;29.97;;
20861;SDS011;10591;52.532;13.348;2023-04-15T02:05:46;49.58;;;29.35;;
20861;SDS011;10591;52.532;13.348;2023-04-15T02:08:17;48.20;;;30.40;;
20861;SDS011;10591;52.532;13.348;2023-04-15T02:10:48;47.58;;;30.48;;
20861;SDS011;10591;52.532;13.348;2023-04-15T02:13:20;47.45;;;29.52;;
20861;SDS011;10591;52.532;13.348;2023-04-15T02:15:54;48.05;;;29.52;;
20861;SDS011;10591;52.532;13.348;2023-04-15T02:18:28;45.83;;;29.45;;
20861;SDS011;10591;52.532;13.348;2023-04-15T02:21:03;45.28;;;28.80;;
20861;SDS011;10591;52.532;13.348;2023-04-15T02:23:36;47.40;;;29.32;;
20861;SDS011;10591;52.532;13.348;2023-04-15T02:26:09;47.48;;;30.02;;
20861;SDS011;10591;52.532;13.348;2023-04-15T02:28:40;45.83;;;28.80;;
20861;SDS011;10591;52.532;13.348;2023-04-15T02:31:13;47.73;;;30.40;;
20861;SDS011;10591;52.532;13.348;2023-04-15T02:33:45;47.00;;;29.15;;
20861;SDS011;10591;52.532;13.348;2023-04-15T02:36:16;47.65;;;29.45;;
20861;SDS011;10591;52.532;13.348;2023-04-15T02:38:50;45.80;;;29.47;;
20861;SDS011;10591;52.532;13.348;2023-04-15T02:41:22;46.15;;;29.18;;
20861;SDS011;10591;52.532;13.348;2023-04-15T02:43:57;46.23;;;29.20;;
20861;SDS011;10591;52.532;13.348;2023-04-15T02:46:28;48.40;;;30.08;;
20861;SDS011;10591;52.532;13.348;2023-04-15T02:48:59;47.80;;;28.93;;
20861;SDS011;10591;52.532;13.348;2023-04-15T02:51:31;47.47;;;30.20;;
20861;SDS011;10591;52.532;13.348;2023-04-15T02:54:02;46.73;;;29.07;;
20861;SDS011;10591;52.532;13.348;2023-04-15T02:56:32;46.02;;;28.47;;
20861;SDS011;10591;52.532;13.348;2023-04-15T02:59:03;44.73;;;28.62;;
20861;SDS011;10591;52.532;13.348;2023-04-15T03:01:34;47.70;;;29.42;;
20861;SDS011;10591;52.532;13.348;2023-04-15T03:04:05;48.63;;;29.82;;
20861;SDS011;10591;52.532;13.348;2023-04-15T03:06:37;46.65;;;28.47;;
20861;SDS011;10591;52.532;13.348;2023-04-15T03:09:07;44.42;;;28.62;;
20861;SDS011;10591;52.532;13.348;2023-04-15T03:11:39;45.35;;;28.92;;
20861;SDS011;10591;52.532;13.348;2023-04-15T03:14:11;43.65;;;28.60;;
20861;SDS011;10591;52.532;13.348;2023-04-15T03:16:42;47.43;;;28.87;;
20861;SDS011;10591;52.532;13.348;2023-04-15T03:19:14;45.45;;;28.70;;
20861;SDS011;10591;52.532;13.348;2023-04-15T03:21:47;44.57;;;28.87;;
20861;SDS011;10591;52.532;13.348;2023-04-15T03:24:19;44.58;;;28.52;;
20861;SDS011;10591;52.532;13.348;2023-04-15T03:26:49;43.33;;;28.50;;
20861;SDS011;10591;52.532;13.348;2023-04-15T03:29:20;45.25;;;29.23;;
20861;SDS011;10591;52.532;13.348;2023-04-15T03:31:51;41.10;;;26.93;;
20861;SDS011;10591;52.532;13.348;2023-04-15T03:34:22;43.42;;;28.17;;
20861;SDS011;10591;52.532;13.348;2023-04-15T03:36:52;44.90;;;29.27;;
20861;SDS011;10591;52.532;13.348;2023-04-15T03:39:26;41.20;;;27.10;;
20861;SDS011;10591;52.532;13.348;2023-04-15T03:41:57;47.25;;;28.67;;
20861;SDS011;10591;52.532;13.348;2023-04-15T03:44:29;47.55;;;28.65;;
20861;SDS011;10591;52.532;13.348;2023-04-15T03:47:02;40.43;;;26.37;;
20861;SDS011;10591;52.532;13.348;2023-04-15T03:49:34;43.38;;;26.30;;
20861;SDS011;10591;52.532;13.348;2023-04-15T03:52:07;40.85;;;27.17;;
20861;SDS011;10591;52.532;13.348;2023-04-15T03:54:39;42.15;;;27.77;;
20861;SDS011;10591;52.532;13.348;2023-04-15T03:57:12;39.15;;;27.22;;
20861;SDS011;10591;52.532;13.348;2023-04-15T03:59:43;41.15;;;27.32;;
20861;SDS011;10591;52.532;13.348;2023-04-15T04:02:14;40.43;;;27.15;;
20861;SDS011;10591;52.532;13.348;2023-04-15T04:04:45;38.85;;;25.08;;
20861;SDS011;10591;52.532;13.348;2023-04-15T04:07:16;42.25;;;27.07;;
20861;SDS011;10591;52.532;13.348;2023-04-15T04:09:47;41.00;;;27.20;;
20861;SDS011;10591;52.532;13.348;2023-04-15T04:12:19;40.12;;;26.57;;
20861;SDS011;10591;52.532;13.348;2023-04-15T04:14:52;38.63;;;26.02;;
20861;SDS011;10591;52.532;13.348;2023-04-15T04:17:22;35.98;;;25.85;;
20861;SDS011;10591;52.532;13.348;2023-04-15T04:19:53;41.83;;;26.40;;
20861;SDS011;10591;52.532;13.348;2023-04-15T04:22:24;38.28;;;24.30;;
20861;SDS011;10591;52.532;13.348;2023-04-15T04:24:55;38.23;;;26.02;;
20861;SDS011;10591;52.532;13.348;2023-04-15T04:27:27;38.92;;;24.92;;
20861;SDS011;10591;52.532;13.348;2023-04-15T04:29:57;41.65;;;25.95;;
20861;SDS011;10591;52.532;13.348;2023-04-15T04:32:28;39.13;;;26.25;;
20861;SDS011;10591;52.532;13.348;2023-04-15T04:35:00;40.00;;;26.10;;
20861;SDS011;10591;52.532;13.348;2023-04-15T04:37:32;41.95;;;26.50;;
20861;SDS011;10591;52.532;13.348;2023-04-15T04:40:03;38.17;;;26.20;;
20861;SDS011;10591;52.532;13.348;2023-04-15T04:42:42;39.53;;;27.48;;
20861;SDS011;10591;52.532;13.348;2023-04-15T04:48:26;35.03;;;24.65;;
20861;SDS011;10591;52.532;13.348;2023-04-15T04:51:06;37.30;;;25.97;;
20861;SDS011;10591;52.532;13.348;2023-04-15T04:53:47;34.00;;;23.85;;
20861;SDS011;10591;52.532;13.348;2023-04-15T04:56:28;34.80;;;25.08;;
20861;SDS011;10591;52.532;13.348;2023-04-15T04:59:03;34.50;;;24.83;;
20861;SDS011;10591;52.532;13.348;2023-04-15T05:01:36;34.50;;;25.10;;
20861;SDS011;10591;52.532;13.348;2023-04-15T05:04:07;36.48;;;24.27;;
20861;SDS011;10591;52.532;13.348;2023-04-15T05:06:38;33.90;;;23.50;;
20861;SDS011;10591;52.532;13.348;2023-04-15T05:09:11;32.73;;;23.42;;
20861;SDS011;10591;52.532;13.348;2023-04-15T05:11:42;32.40;;;24.35;;
20861;SDS011;10591;52.532;13.348;2023-04-15T05:14:13;34.88;;;24.77;;
20861;SDS011;10591;52.532;13.348;2023-04-15T05:16:44;34.10;;;24.10;;
20861;SDS011;10591;52.532;13.348;2023-04-15T05:19:15;32.23;;;23.87;;
20861;SDS011;10591;52.532;13.348;2023-04-15T05:21:47;33.18;;;23.30;;
20861;SDS011;10591;52.532;13.348;2023-04-15T05:24:19;31.37;;;23.70;;
20861;SDS011;10591;52.532;13.348;2023-04-15T05:26:51;32.00;;;22.22;;
20861;SDS011;10591;52.532;13.348;2023-04-15T05:29:25;30.17;;;22.02;;
20861;SDS011;10591;52.532;13.348;2023-04-15T05:31:57;30.72;;;23.20;;
20861;SDS011;10591;52.532;13.348;2023-04-15T05:34:27;28.02;;;21.68;;
20861;SDS011;10591;52.532;13.348;2023-04-15T05:37:00;28.00;;;21.75;;
20861;SDS011;10591;52.532;13.348;2023-04-15T05:39:36;31.15;;;22.32;;
20861;SDS011;10591;52.532;13.348;2023-04-15T05:42:08;29.10;;;21.90;;
20861;SDS011;10591;52.532;13.348;2023-04-15T05:44:40;27.75;;;20.65;;
20861;SDS011;10591;52.532;13.348;2023-04-15T05:47:10;27.10;;;21.15;;
20861;SDS011;10591;52.532;13.348;2023-04-15T05:49:42;28.15;;;20.92;;
20861;SDS011;10591;52.532;13.348;2023-04-15T05:52:16;24.87;;;20.50;;
20861;SDS011;10591;52.532;13.348;2023-04-15T05:54:49;27.35;;;20.32;;
20861;SDS011;10591;52.532;13.348;2023-04-15T05:57:20;25.62;;;20.20;;
20861;SDS011;10591;52.532;13.348;2023-04-15T05:59:51;24.02;;;19.23;;
20861;SDS011;10591;52.532;13.348;2023-04-15T06:02:23;23.98;;;19.62;;
20861;SDS011;10591;52.532;13.348;2023-04-15T06:04:54;24.80;;;19.20;;
20861;SDS011;10591;52.532;13.348;2023-04-15T06:07:27;24.10;;;19.48;;
20861;SDS011;10591;52.532;13.348;2023-04-15T06:09:58;23.25;;;19.42;;
20861;SDS011;10591;52.532;13.348;2023-04-15T06:12:28;23.75;;;18.77;;
20861;SDS011;10591;52.532;13.348;2023-04-15T06:15:01;23.50;;;19.10;;
20861;SDS011;10591;52.532;13.348;2023-04-15T06:17:34;23.67;;;18.42;;
20861;SDS011;10591;52.532;13.348;2023-04-15T06:20:07;23.65;;;17.85;;
20861;SDS011;10591;52.532;13.348;2023-04-15T06:22:40;22.48;;;18.95;;
20861;SDS011;10591;52.532;13.348;2023-04-15T06:25:11;22.82;;;18.15;;
20861;SDS011;10591;52.532;13.348;2023-04-15T06:27:42;21.00;;;17.70;;
20861;SDS011;10591;52.532;13.348;2023-04-15T06:30:13;21.87;;;17.17;;
20861;SDS011;10591;52.532;13.348;2023-04-15T06:32:47;22.85;;;17.30;;
20861;SDS011;10591;52.532;13.348;2023-04-15T06:35:18;19.37;;;16.45;;
20861;SDS011;10591;52.532;13.348;2023-04-15T06:37:49;22.15;;;16.40;;
20861;SDS011;10591;52.532;13.348;2023-04-15T06:40:20;21.35;;;16.42;;
20861;SDS011;10591;52.532;13.348;2023-04-15T06:42:51;18.98;;;16.65;;
20861;SDS011;10591;52.532;13.348;2023-04-15T06:45:23;18.30;;;15.60;;
20861;SDS011;10591;52.532;13.348;2023-04-15T06:47:54;17.15;;;15.23;;
20861;SDS011;10591;52.532;13.348;2023-04-15T06:50:27;18.32;;;15.00;;
20861;SDS011;10591;52.532;13.348;2023-04-15T06:52:57;16.52;;;14.73;;
20861;SDS011;10591;52.532;13.348;2023-04-15T06:55:28;16.90;;;14.47;;
20861;SDS011;10591;52.532;13.348;2023-04-15T06:57:59;15.98;;;14.28;;
20861;SDS011;10591;52.532;13.348;2023-04-15T07:00:30;16.75;;;13.90;;
20861;SDS011;10591;52.532;13.348;2023-04-15T07:03:01;15.35;;;13.22;;
20861;SDS011;10591;52.532;13.348;2023-04-15T07:05:32;14.87;;;12.75;;
20861;SDS011;10591;52.532;13.348;2023-04-15T07:08:03;16.57;;;13.55;;
20861;SDS011;10591;52.532;13.348;2023-04-15T07:10:34;15.88;;;12.88;;
20861;SDS011;10591;52.532;13.348;2023-04-15T07:13:05;15.98;;;13.25;;
20861;SDS011;10591;52.532;13.348;2023-04-15T07:15:36;14.60;;;13.08;;
20861;SDS011;10591;52.532;13.348;2023-04-15T07:18:07;16.15;;;13.78;;
20861;SDS011;10591;52.532;13.348;2023-04-15T07:20:38;26.68;;;21.95;;
20861;SDS011;10591;52.532;13.348;2023-04-15T07:23:09;13.55;;;11.78;;
20861;SDS011;10591;52.532;13.348;2023-04-15T07:25:39;13.65;;;12.28;;
20861;SDS011;10591;52.532;13.348;2023-04-15T07:28:10;14.33;;;12.82;;
20861;SDS011;10591;52.532;13.348;2023-04-15T07:30:41;14.50;;;13.00;;
20861;SDS011;10591;52.532;13.348;2023-04-15T07:33:11;15.18;;;13.38;;
20861;SDS011;10591;52.532;13.348;2023-04-15T07:35:43;14.45;;;12.95;;
20861;SDS011;10591;52.532;13.348;2023-04-15T07:38:14;14.80;;;12.93;;
20861;SDS011;10591;52.532;13.348;2023-04-15T07:40:45;15.45;;;13.75;;
20861;SDS011;10591;52.532;13.348;2023-04-15T07:43:16;16.27;;;14.20;;
20861;SDS011;10591;52.532;13.348;2023-04-15T07:45:48;16.40;;;14.73;;
20861;SDS011;10591;52.532;13.348;2023-04-15T07:48:19;16.42;;;14.70;;
20861;SDS011;10591;52.532;13.348;2023-04-15T07:50:50;15.95;;;14.28;;
20861;SDS011;10591;52.532;13.348;2023-04-15T07:53:21;16.87;;;13.58;;
20861;SDS011;10591;52.532;13.348;2023-04-15T07:55:51;17.23;;;14.60;;
20861;SDS011;10591;52.532;13.348;2023-04-15T07:58:22;17.10;;;14.07;;
20861;SDS011;10591;52.532;13.348;2023-04-15T08:00:53;16.37;;;14.68;;
20861;SDS011;10591;52.532;13.348;2023-04-15T08:03:24;16.50;;;14.80;;
20861;SDS011;10591;52.532;13.348;2023-04-15T08:05:57;16.90;;;14.47;;
20861;SDS011;10591;52.532;13.348;2023-04-15T08:08:29;16.37;;;14.45;;
20861;SDS011;10591;52.532;13.348;2023-04-15T08:11:03;17.40;;;15.47;;
20861;SDS011;10591;52.532;13.348;2023-04-15T08:13:34;16.87;;;14.23;;
20861;SDS011;10591;52.532;13.348;2023-04-15T08:16:13;17.55;;;15.05;;
20861;SDS011;10591;52.532;13.348;2023-04-15T08:18:53;16.00;;;14.15;;
20861;SDS011;10591;52.532;13.348;2023-04-15T08:21:25;17.30;;;15.45;;
20861;SDS011;10591;52.532;13.348;2023-04-15T08:23:58;16.00;;;14.35;;
20861;SDS011;10591;52.532;13.348;2023-04-15T08:26:29;18.90;;;15.38;;
20861;SDS011;10591;52.532;13.348;2023-04-15T08:29:01;19.10;;;15.05;;
20861;SDS011;10591;52.532;13.348;2023-04-15T08:31:32;16.37;;;14.68;;
20861;SDS011;10591;52.532;13.348;2023-04-15T08:34:05;16.87;;;14.33;;
20861;SDS011;10591;52.532;13.348;2023-04-15T08:36:36;17.27;;;14.95;;
20861;SDS011;10591;52.532;13.348;2023-04-15T08:39:07;17.35;;;15.23;;
20861;SDS011;10591;52.532;13.348;2023-04-15T08:41:44;18.52;;;16.55;;
20861;SDS011;10591;52.532;13.348;2023-04-15T08:44:18;17.55;;;15.58;;
20861;SDS011;10591;52.532;13.348;2023-04-15T08:46:54;17.82;;;16.02;;
20861;SDS011;10591;52.532;13.348;2023-04-15T08:49:25;17.73;;;15.50;;
20861;SDS011;10591;52.532;13.348;2023-04-15T08:51:58;17.57;;;15.68;;
20861;SDS011;10591;52.532;13.348;2023-04-15T08:54:29;18.25;;;16.25;;
20861;SDS011;10591;52.532;13.348;2023-04-15T08:57:01;16.77;;;15.08;;
20861;SDS011;10591;52.532;13.348;2023-04-15T08:59:32;18.40;;;16.25;;
20861;SDS011;10591;52.532;13.348;2023-04-15T09:02:03;18.50;;;16.62;;
20861;SDS011;10591;52.532;13.348;2023-04-15T09:04:37;19.42;;;16.07;;
20861;SDS011;10591;52.532;13.348;2023-04-15T09:07:09;19.35;;;16.12;;
20861;SDS011;10591;52.532;13.348;2023-04-15T09:09:39;19.12;;;17.17;;
20861;SDS011;10591;52.532;13.348;2023-04-15T09:12:10;19.23;;;15.55;;
20861;SDS011;10591;52.532;13.348;2023-04-15T09:14:44;18.05;;;15.80;;
20861;SDS011;10591;52.532;13.348;2023-04-15T09:17:19;17.82;;;15.95;;
20861;SDS011;10591;52.532;13.348;2023-04-15T09:20:10;17.87;;;15.90;;
20861;SDS011;10591;52.532;13.348;2023-04-15T09:22:43;17.55;;;15.18;;
20861;SDS011;10591;52.532;13.348;2023-04-15T09:27:58;17.55;;;15.68;;
20861;SDS011;10591;52.532;13.348;2023-04-15T09:30:29;17.90;;;16.02;;
20861;SDS011;10591;52.532;13.348;2023-04-15T09:33:02;18.05;;;16.02;;
20861;SDS011;10591;52.532;13.348;2023-04-15T09:35:37;18.12;;;16.15;;
20861;SDS011;10591;52.532;13.348;2023-04-15T09:38:10;16.42;;;14.73;;
20861;SDS011;10591;52.532;13.348;2023-04-15T09:40:45;16.75;;;15.15;;
20861;SDS011;10591;52.532;13.348;2023-04-15T09:43:17;17.00;;;15.25;;
20861;SDS011;10591;52.532;13.348;2023-04-15T09:45:51;16.35;;;14.75;;
20861;SDS011;10591;52.532;13.348;2023-04-15T09:48:24;16.62;;;14.93;;
20861;SDS011;10591;52.532;13.348;2023-04-15T09:50:58;15.98;;;14.43;;
20861;SDS011;10591;52.532;13.348;2023-04-15T09:53:34;17.07;;;15.28;;
20861;SDS011;10591;52.532;13.348;2023-04-15T09:56:08;17.98;;;16.17;;
20861;SDS011;10591;52.532;13.348;2023-04-15T09:58:39;16.30;;;14.13;;
20861;SDS011;10591;52.532;13.348;2023-04-15T10:01:12;16.30;;;14.60;;
20861;SDS011;10591;52.532;13.348;2023-04-15T10:03:45;17.65;;;15.18;;
20861;SDS011;10591;52.532;13.348;2023-04-15T10:06:20;17.23;;;15.15;;
20861;SDS011;10591;52.532;13.348;2023-04-15T10:08:54;17.73;;;15.85;;
20861;SDS011;10591;52.532;13.348;2023-04-15T10:11:29;17.70;;;15.70;;
20861;SDS011;10591;52.532;13.348;2023-04-15T10:14:04;17.77;;;15.83;;
20861;SDS011;10591;52.532;13.348;2023-04-15T10:16:37;17.50;;;15.83;;
20861;SDS011;10591;52.532;13.348;2023-04-15T10:19:12;18.80;;;17.00;;
20861;SDS011;10591;52.532;13.348;2023-04-15T10:21:44;17.70;;;15.80;;
20861;SDS011;10591;52.532;13.348;2023-04-15T10:24:16;16.80;;;15.10;;
20861;SDS011;10591;52.532;13.348;2023-04-15T10:26:50;18.62;;;15.93;;
20861;SDS011;10591;52.532;13.348;2023-04-15T10:29:23;18.40;;;16.50;;
20861;SDS011;10591;52.532;13.348;2023-04-15T10:32:00;17.65;;;15.72;;
20861;SDS011;10591;52.532;13.348;2023-04-15T10:34:38;17.48;;;15.63;;
20861;SDS011;10591;52.532;13.348;2023-04-15T10:37:11;18.23;;;16.32;;
20861;SDS011;10591;52.532;13.348;2023-04-15T10:39:50;17.80;;;16.00;;
20861;SDS011;10591;52.532;13.348;2023-04-15T10:42:34;18.77;;;16.77;;
20861;SDS011;10591;52.532;13.348;2023-04-15T10:45:06;17.90;;;15.98;;
20861;SDS011;10591;52.532;13.348;2023-04-15T10:47:39;17.42;;;15.50;;
20861;SDS011;10591;52.532;13.348;2023-04-15T10:50:15;17.75;;;16.02;;
20861;SDS011;10591;52.532;13.348;2023-04-15T10:52:50;18.35;;;15.75;;
20861;SDS011;10591;52.532;13.348;2023-04-15T10:55:22;17.42;;;15.63;;
20861;SDS011;10591;52.532;13.348;2023-04-15T10:57:57;18.55;;;16.55;;
20861;SDS011;10591;52.532;13.348;2023-04-15T11:00:36;20.00;;;16.87;;
20861;SDS011;10591;52.532;13.348;2023-04-15T11:03:10;17.75;;;15.83;;
20861;SDS011;10591;52.532;13.348;2023-04-15T11:08:23;19.07;;;17.00;;
20861;SDS011;10591;52.532;13.348;2023-04-15T11:10:55;18.70;;;15.80;;
20861;SDS011;10591;52.532;13.348;2023-04-15T11:13:30;20.08;;;17.20;;
20861;SDS011;10591;52.532;13.348;2023-04-15T11:16:02;17.57;;;15.75;;
20861;SDS011;10591;52.532;13.348;2023-04-15T11:18:40;17.82;;;16.10;;
20861;SDS011;10591;52.532;13.348;2023-04-15T11:21:10;18.23;;;16.32;;
20861;SDS011;10591;52.532;13.348;2023-04-15T11:23:43;18.10;;;16.25;;
20861;SDS011;10591;52.532;13.348;2023-04-15T11:26:24;17.23;;;15.45;;
20861;SDS011;10591;52.532;13.348;2023-04-15T11:28:56;19.25;;;16.90;;
20861;SDS011;10591;52.532;13.348;2023-04-15T11:31:33;19.37;;;16.40;;
20861;SDS011;10591;52.532;13.348;2023-04-15T11:34:06;21.45;;;17.70;;
20861;SDS011;10591;52.532;13.348;2023-04-15T11:36:36;20.17;;;18.07;;
20861;SDS011;10591;52.532;13.348;2023-04-15T11:39:11;19.75;;;17.60;;
20861;SDS011;10591;52.532;13.348;2023-04-15T11:41:44;19.30;;;16.85;;
20861;SDS011;10591;52.532;13.348;2023-04-15T11:44:16;19.27;;;17.15;;
20861;SDS011;10591;52.532;13.348;2023-04-15T11:46:49;18.60;;;16.60;;
20861;SDS011;10591;52.532;13.348;2023-04-15T11:49:28;19.25;;;17.27;;
20861;SDS011;10591;52.532;13.348;2023-04-15T11:52:09;21.37;;;18.17;;
20861;SDS011;10591;52.532;13.348;2023-04-15T11:54:42;19.02;;;17.02;;
20861;SDS011;10591;52.532;13.348;2023-04-15T11:57:16;17.87;;;15.98;;
20861;SDS011;10591;52.532;13.348;2023-04-15T11:59:49;17.85;;;15.95;;
20861;SDS011;10591;52.532;13.348;2023-04-15T12:02:30;19.37;;;17.07;;
20861;SDS011;10591;52.532;13.348;2023-04-15T12:05:07;18.37;;;16.48;;
20861;SDS011;10591;52.532;13.348;2023-04-15T12:10:33;19.37;;;16.80;;
20861;SDS011;10591;52.532;13.348;2023-04-15T12:13:14;20.55;;;17.90;;
20861;SDS011;10591;52.532;13.348;2023-04-15T12:15:48;21.05;;;17.90;;
20861;SDS011;10591;52.532;13.348;2023-04-15T12:21:34;24.37;;;19.32;;
20861;SDS011;10591;52.532;13.348;2023-04-15T12:24:08;22.58;;;20.12;;
20861;SDS011;10591;52.532;13.348;2023-04-15T12:26:44;24.02;;;20.32;;
20861;SDS011;10591;52.532;13.348;2023-04-15T12:29:17;24.05;;;21.42;;
20861;SDS011;10591;52.532;13.348;2023-04-15T12:32:37;25.08;;;21.30;;
20861;SDS011;10591;52.532;13.348;2023-04-15T12:34:31;25.23;;;21.68;;
20861;SDS011;10591;52.532;13.348;2023-04-15T12:37:08;26.30;;;20.62;;
20861;SDS011;10591;52.532;13.348;2023-04-15T12:39:43;26.02;;;22.45;;
20861;SDS011;10591;52.532;13.348;2023-04-15T12:42:20;24.52;;;21.62;;
20861;SDS011;10591;52.532;13.348;2023-04-15T12:44:53;24.40;;;19.98;;
20861;SDS011;10591;52.532;13.348;2023-04-15T12:47:27;22.13;;;19.82;;
20861;SDS011;10591;52.532;13.348;2023-04-15T12:49:59;22.30;;;19.98;;
20861;SDS011;10591;52.532;13.348;2023-04-15T12:52:30;23.52;;;20.32;;
20861;SDS011;10591;52.532;13.348;2023-04-15T12:55:03;23.27;;;19.98;;
20861;SDS011;10591;52.532;13.348;2023-04-15T12:57:38;22.32;;;19.92;;
20861;SDS011;10591;52.532;13.348;2023-04-15T13:00:12;25.35;;;20.75;;
20861;SDS011;10591;52.532;13.348;2023-04-15T13:02:44;23.65;;;20.25;;
20861;SDS011;10591;52.532;13.348;2023-04-15T13:05:15;23.12;;;19.92;;
20861;SDS011;10591;52.532;13.348;2023-04-15T13:07:49;22.60;;;20.20;;
20861;SDS011;10591;52.532;13.348;2023-04-15T13:10:21;22.73;;;19.82;;
20861;SDS011;10591;52.532;13.348;2023-04-15T13:12:53;23.18;;;19.82;;
20861;SDS011;10591;52.532;13.348;2023-04-15T13:15:25;21.05;;;18.65;;
20861;SDS011;10591;52.532;13.348;2023-04-15T13:17:56;21.52;;;19.23;;
20861;SDS011;10591;52.532;13.348;2023-04-15T13:20:37;20.57;;;18.48;;
20861;SDS011;10591;52.532;13.348;2023-04-15T13:22:59;20.32;;;18.15;;
20861;SDS011;10591;52.532;13.348;2023-04-15T13:25:30;22.67;;;18.48;;
20861;SDS011;10591;52.532;13.348;2023-04-15T13:28:01;20.90;;;18.70;;
20861;SDS011;10591;52.532;13.348;2023-04-15T13:30:34;22.00;;;18.73;;
20861;SDS011;10591;52.532;13.348;2023-04-15T13:33:09;20.70;;;18.23;;
20861;SDS011;10591;52.532;13.348;2023-04-15T13:35:40;18.70;;;16.70;;
20861;SDS011;10591;52.532;13.348;2023-04-15T13:38:11;19.37;;;17.30;;
20861;SDS011;10591;52.532;13.348;2023-04-15T13:40:43;20.25;;;18.17;;
20861;SDS011;10591;52.532;13.348;2023-04-15T13:43:22;18.20;;;16.30;;
20861;SDS011;10591;52.532;13.348;2023-04-15T13:45:53;17.82;;;15.88;;
20861;SDS011;10591;52.532;13.348;2023-04-15T13:48:24;14.93;;;13.32;;
20861;SDS011;10591;52.532;13.348;2023-04-15T13:50:57;18.25;;;14.70;;
20861;SDS011;10591;52.532;13.348;2023-04-15T13:53:29;17.10;;;14.98;;
20861;SDS011;10591;52.532;13.348;2023-04-15T13:56:02;15.55;;;13.95;;
20861;SDS011;10591;52.532;13.348;2023-04-15T13:58:33;15.32;;;13.72;;
20861;SDS011;10591;52.532;13.348;2023-04-15T14:01:04;16.00;;;14.40;;
20861;SDS011;10591;52.532;13.348;2023-04-15T14:03:36;17.17;;;14.28;;
20861;SDS011;10591;52.532;13.348;2023-04-15T14:06:08;16.40;;;14.70;;
20861;SDS011;10591;52.532;13.348;2023-04-15T14:08:40;16.48;;;14.73;;
20861;SDS011;10591;52.532;13.348;2023-04-15T14:11:11;17.07;;;14.80;;
20861;SDS011;10591;52.532;13.348;2023-04-15T14:13:42;16.48;;;14.78;;
20861;SDS011;10591;52.532;13.348;2023-04-15T14:16:13;16.52;;;14.85;;
20861;SDS011;10591;52.532;13.348;2023-04-15T14:18:46;15.83;;;14.23;;
20861;SDS011;10591;52.532;13.348;2023-04-15T14:21:18;16.25;;;14.55;;
20861;SDS011;10591;52.532;13.348;2023-04-15T14:23:48;16.30;;;14.70;;
20861;SDS011;10591;52.532;13.348;2023-04-15T14:26:21;15.85;;;14.25;;
20861;SDS011;10591;52.532;13.348;2023-04-15T14:28:53;16.23;;;14.53;;
20861;SDS011;10591;52.532;13.348;2023-04-15T14:31:25;16.67;;;14.98;;
20861;SDS011;10591;52.532;13.348;2023-04-15T14:33:56;16.15;;;14.47;;
20861;SDS011;10591;52.532;13.348;2023-04-15T14:36:29;18.15;;;16.25;;
20861;SDS011;10591;52.532;13.348;2023-04-15T14:39:00;17.25;;;15.55;;
20861;SDS011;10591;52.532;13.348;2023-04-15T14:41:34;21.80;;;19.27;;
20861;SDS011;10591;52.532;13.348;2023-04-15T14:44:05;16.97;;;15.28;;
20861;SDS011;10591;52.532;13.348;2023-04-15T14:46:39;20.30;;;17.95;;
20861;SDS011;10591;52.532;13.348;2023-04-15T14:49:11;18.12;;;16.25;;
20861;SDS011;10591;52.532;13.348;2023-04-15T14:51:42;18.17;;;16.25;;
20861;SDS011;10591;52.532;13.348;2023-04-15T14:54:14;17.60;;;15.58;;